createdAt,value
2018-06-11T00:00:37.757Z,3.50
2018-06-11T00:03:06.786Z,3.73
2018-06-11T00:05:35.776Z,3.30
2018-06-11T00:08:04.781Z,3.13
2018-06-11T00:10:34.013Z,3.60
2018-06-11T00:13:03.012Z,3.73
2018-06-11T00:15:32.016Z,4.13
2018-06-11T00:18:01.017Z,6.63
2018-06-11T00:20:29.951Z,7.03
2018-06-11T00:22:59.034Z,7.37
2018-06-11T00:25:27.982Z,9.03
2018-06-11T00:27:56.967Z,7.97
2018-06-11T00:30:25.957Z,9.93
2018-06-11T00:32:55.127Z,10.10
2018-06-11T00:35:24.084Z,10.23
2018-06-11T00:37:53.028Z,9.23
2018-06-11T00:40:22.089Z,9.27
2018-06-11T00:42:51.031Z,10.57
2018-06-11T00:45:20.030Z,9.70
2018-06-11T00:47:48.976Z,8.23
2018-06-11T00:50:17.972Z,9.83
2018-06-11T00:52:46.980Z,10.13
2018-06-11T00:55:15.969Z,10.10
2018-06-11T00:57:44.970Z,9.40
2018-06-11T01:00:13.937Z,9.07
2018-06-11T01:02:42.888Z,8.97
2018-06-11T01:05:11.881Z,10.10
2018-06-11T01:07:40.903Z,9.93
2018-06-11T01:10:10.018Z,9.30
2018-06-11T01:12:38.987Z,10.23
2018-06-11T01:15:08.873Z,11.17
2018-06-11T01:17:37.960Z,11.17
2018-06-11T01:20:07.021Z,10.33
2018-06-11T01:22:36.028Z,10.53
2018-06-11T01:25:04.982Z,9.70
2018-06-11T01:27:33.947Z,12.17
2018-06-11T01:30:03.004Z,9.83
2018-06-11T01:32:31.952Z,9.00
2018-06-11T01:35:00.955Z,10.40
2018-06-11T01:37:30.023Z,10.30
2018-06-11T01:39:59.080Z,10.30
2018-06-11T01:42:28.080Z,10.80
2018-06-11T01:44:57.127Z,12.33
2018-06-11T01:47:26.262Z,11.77
2018-06-11T01:49:55.280Z,11.00
2018-06-11T01:52:24.259Z,9.37
2018-06-11T01:54:53.256Z,9.37
2018-06-11T01:57:22.240Z,8.67
2018-06-11T01:59:51.313Z,7.60
2018-06-11T02:02:20.264Z,8.40
2018-06-11T02:04:49.242Z,8.17
2018-06-11T02:07:18.329Z,7.80
2018-06-11T02:09:47.308Z,7.40
2018-06-11T02:12:16.244Z,6.90
2018-06-11T02:14:45.281Z,7.27
2018-06-11T02:17:14.231Z,7.23
2018-06-11T02:19:49.668Z,7.43
2018-06-11T02:22:18.713Z,6.30
2018-06-11T02:24:47.658Z,6.70
2018-06-11T02:27:16.592Z,6.47
2018-06-11T02:29:45.576Z,6.40
2018-06-11T02:32:14.652Z,7.73
2018-06-11T02:34:43.609Z,11.63
2018-06-11T02:37:12.656Z,11.17
2018-06-11T02:39:41.692Z,9.17
2018-06-11T02:42:10.644Z,12.00
2018-06-11T02:44:39.681Z,12.40
2018-06-11T02:47:08.677Z,9.37
2018-06-11T02:49:37.737Z,8.63
2018-06-11T02:52:06.776Z,8.33
2018-06-11T02:54:35.762Z,8.37
2018-06-11T02:57:04.829Z,9.57
2018-06-11T02:59:33.839Z,9.03
2018-06-11T03:02:02.855Z,10.30
2018-06-11T03:04:31.792Z,9.23
2018-06-11T03:07:00.804Z,8.13
2018-06-11T03:09:29.793Z,8.30
2018-06-11T03:11:58.732Z,8.10
2018-06-11T03:14:27.736Z,7.80
2018-06-11T03:16:56.798Z,6.73
2018-06-11T03:19:25.803Z,8.93
2018-06-11T03:21:54.929Z,7.87
2018-06-11T03:24:23.923Z,8.77
2018-06-11T03:26:52.919Z,8.20
2018-06-11T03:29:21.978Z,7.67
2018-06-11T03:31:50.924Z,7.03
2018-06-11T03:34:19.980Z,7.47
2018-06-11T03:36:49.021Z,8.20
2018-06-11T03:39:18.063Z,8.30
2018-06-11T03:41:46.996Z,8.03
2018-06-11T03:44:15.919Z,6.53
2018-06-11T03:46:44.904Z,9.57
2018-06-11T03:49:13.941Z,24.47
2018-06-11T03:51:42.895Z,44.20
2018-06-11T03:54:11.844Z,58.57
2018-06-11T03:56:40.784Z,43.67
2018-06-11T03:59:09.856Z,30.00
2018-06-11T04:01:38.832Z,17.87
2018-06-11T04:04:07.840Z,11.77
2018-06-11T04:06:36.953Z,6.20
2018-06-11T04:09:08.092Z,4.77
2018-06-11T04:11:37.265Z,5.57
2018-06-11T04:14:06.263Z,4.00
2018-06-11T04:16:35.229Z,4.37
2018-06-11T04:19:04.222Z,3.97
2018-06-11T04:21:33.217Z,4.30
2018-06-11T04:24:02.209Z,3.37
2018-06-11T04:26:31.208Z,5.20
2018-06-11T04:29:00.152Z,3.60
2018-06-11T04:31:29.172Z,6.90
2018-06-11T04:33:58.193Z,17.73
2018-06-11T04:36:27.276Z,15.87
2018-06-11T04:38:56.252Z,13.17
2018-06-11T04:41:25.253Z,10.40
2018-06-11T04:43:54.305Z,11.60
2018-06-11T04:46:23.301Z,13.30
2018-06-11T04:48:52.339Z,20.90
2018-06-11T04:51:36.146Z,21.20
2018-06-11T04:54:05.170Z,12.23
2018-06-11T04:56:34.197Z,9.30
2018-06-11T04:59:03.192Z,10.93
2018-06-11T05:01:32.285Z,10.40
2018-06-11T05:04:01.246Z,4.57
2018-06-11T05:06:30.260Z,3.50
2018-06-11T05:08:59.206Z,2.70
2018-06-11T05:11:28.209Z,4.50
2018-06-11T05:13:57.185Z,3.10
2018-06-11T05:16:26.189Z,3.10
2018-06-11T05:18:55.306Z,3.40
2018-06-11T05:21:24.389Z,3.70
2018-06-11T05:23:53.343Z,3.97
2018-06-11T05:26:22.364Z,3.20
2018-06-11T05:28:51.398Z,3.27
2018-06-11T05:31:20.502Z,3.80
2018-06-11T05:33:49.541Z,3.90
2018-06-11T05:36:18.529Z,4.50
2018-06-11T05:38:47.525Z,3.97
2018-06-11T05:41:16.596Z,4.00
2018-06-11T05:43:45.607Z,3.80
2018-06-11T05:46:14.574Z,4.40
2018-06-11T05:48:43.597Z,4.83
2018-06-11T05:51:12.637Z,3.70
2018-06-11T05:53:41.605Z,3.73
2018-06-11T05:56:10.608Z,3.87
2018-06-11T05:58:39.553Z,4.03
2018-06-11T06:01:08.638Z,3.50
2018-06-11T06:03:37.604Z,3.93
2018-06-11T06:06:06.561Z,3.65
2018-06-11T06:08:35.583Z,3.92
2018-06-11T06:11:04.545Z,5.00
2018-06-11T06:13:33.496Z,5.95
2018-06-11T06:16:02.471Z,6.92
2018-06-11T06:18:31.421Z,6.35
2018-06-11T06:21:00.545Z,6.37
2018-06-11T06:23:29.569Z,5.25
2018-06-11T06:25:58.551Z,4.97
2018-06-11T06:28:27.558Z,5.12
2018-06-11T06:30:56.561Z,7.55
2018-06-11T06:33:25.581Z,5.55
2018-06-11T06:35:54.610Z,4.92
2018-06-11T06:38:23.622Z,5.35
2018-06-11T06:40:52.629Z,5.00
2018-06-11T06:43:21.632Z,5.47
2018-06-11T06:45:50.674Z,7.20
2018-06-11T06:48:19.684Z,5.90
2018-06-11T06:50:48.721Z,5.10
2018-06-11T06:53:17.783Z,6.73
2018-06-11T06:55:46.773Z,5.17
2018-06-11T06:58:15.783Z,5.03
2018-06-11T07:00:44.797Z,6.23
2018-06-11T07:03:13.781Z,4.87
2018-06-11T07:05:42.741Z,5.77
2018-06-11T07:08:11.734Z,5.00
2018-06-11T07:10:40.754Z,5.80
2018-06-11T07:13:09.933Z,4.90
2018-06-11T07:15:38.936Z,5.87
2018-06-11T07:18:07.949Z,4.97
2018-06-11T07:20:37.018Z,5.07
2018-06-11T07:23:06.024Z,4.67
2018-06-11T07:25:35.061Z,5.30
2018-06-11T07:28:04.063Z,5.20
2018-06-11T07:30:33.065Z,5.27
2018-06-11T07:33:02.061Z,4.67
2018-06-11T07:35:31.048Z,4.30
2018-06-11T07:38:00.026Z,4.73
2018-06-11T07:40:29.048Z,5.40
2018-06-11T07:42:58.058Z,4.73
2018-06-11T07:45:27.109Z,5.63
2018-06-11T07:47:56.141Z,4.33
2018-06-11T07:50:25.098Z,5.00
2018-06-11T07:52:54.063Z,5.43
2018-06-11T07:55:23.027Z,5.30
2018-06-11T07:57:52.045Z,5.67
2018-06-11T08:00:21.096Z,5.70
2018-06-11T08:02:50.057Z,5.80
2018-06-11T08:05:19.065Z,5.20
2018-06-11T08:07:48.155Z,7.97
2018-06-11T08:10:17.228Z,8.90
2018-06-11T08:12:46.316Z,5.53
2018-06-11T08:15:15.268Z,5.23
2018-06-11T08:17:44.221Z,4.30
2018-06-11T08:20:13.198Z,6.33
2018-06-11T08:22:42.153Z,5.70
2018-06-11T08:25:11.273Z,5.80
2018-06-11T08:27:40.297Z,5.60
2018-06-11T08:30:09.320Z,5.70
2018-06-11T08:32:38.359Z,5.50
2018-06-11T08:35:07.371Z,4.80
2018-06-11T08:37:36.388Z,5.07
2018-06-11T08:40:05.360Z,4.90
2018-06-11T08:42:34.393Z,5.53
2018-06-11T08:45:03.434Z,4.83
2018-06-11T08:47:32.394Z,5.40
2018-06-11T08:50:01.517Z,5.73
2018-06-11T08:52:30.544Z,5.87
2018-06-11T08:54:59.496Z,5.83
2018-06-11T08:57:28.500Z,5.00
2018-06-11T08:59:57.503Z,5.57
2018-06-11T09:02:26.601Z,5.13
2018-06-11T09:04:55.540Z,4.87
2018-06-11T09:07:24.559Z,5.97
2018-06-11T09:09:53.578Z,4.07
2018-06-11T09:12:22.540Z,5.00
2018-06-11T09:14:51.605Z,5.00
2018-06-11T09:17:20.784Z,4.93
2018-06-11T09:19:49.749Z,5.20
2018-06-11T09:22:18.732Z,4.97
2018-06-11T09:24:47.789Z,5.07
2018-06-11T09:27:16.856Z,4.20
2018-06-11T09:29:45.808Z,4.30
2018-06-11T09:32:14.772Z,4.63
2018-06-11T09:34:43.794Z,5.27
2018-06-11T09:37:12.784Z,4.50
2018-06-11T09:39:41.832Z,4.77
2018-06-11T09:42:10.905Z,4.83
2018-06-11T09:44:39.935Z,4.40
2018-06-11T09:47:08.904Z,3.93
2018-06-11T09:49:37.884Z,4.63
2018-06-11T09:52:06.925Z,3.80
2018-06-11T09:54:35.900Z,3.97
2018-06-11T09:57:04.866Z,5.00
2018-06-11T09:59:33.832Z,3.80
2018-06-11T10:02:02.865Z,3.93
2018-06-11T10:04:31.825Z,3.42
2018-06-11T10:07:00.778Z,3.50
2018-06-11T10:09:29.808Z,3.33
2018-06-11T10:11:58.896Z,4.35
2018-06-11T10:14:27.920Z,3.42
2018-06-11T10:16:56.900Z,2.98
2018-06-11T10:19:25.883Z,3.98
2018-06-11T10:21:54.944Z,3.05
2018-06-11T10:24:23.956Z,2.80
2018-06-11T10:26:52.911Z,2.98
2018-06-11T10:29:21.863Z,3.10
2018-06-11T10:31:50.844Z,3.00
2018-06-11T10:34:19.974Z,3.00
2018-06-11T10:36:48.985Z,3.50
2018-06-11T10:39:18.004Z,2.80
2018-06-11T10:41:47.041Z,2.95
2018-06-11T10:44:16.005Z,3.08
2018-06-11T10:46:45.013Z,2.33
2018-06-11T10:49:14.025Z,3.20
2018-06-11T10:51:43.057Z,3.33
2018-06-11T10:54:12.070Z,2.98
2018-06-11T10:56:41.093Z,3.25
2018-06-11T10:59:10.213Z,3.35
2018-06-11T11:01:39.225Z,2.77
2018-06-11T11:04:08.194Z,2.45
2018-06-11T11:06:37.157Z,2.80
2018-06-11T11:09:07.485Z,3.20
2018-06-11T11:11:36.505Z,2.80
2018-06-11T11:14:05.532Z,2.58
2018-06-11T11:16:34.520Z,2.02
2018-06-11T11:19:03.485Z,2.40
2018-06-11T11:21:32.513Z,2.52
2018-06-11T11:24:01.596Z,2.70
2018-06-11T11:26:30.602Z,3.45
2018-06-11T11:28:59.620Z,2.75
2018-06-11T11:31:28.723Z,3.05
2018-06-11T11:33:57.769Z,2.35
2018-06-11T11:36:26.833Z,2.58
2018-06-11T11:38:55.808Z,1.80
2018-06-11T11:41:24.767Z,2.45
2018-06-11T11:43:53.859Z,1.95
2018-06-11T11:46:22.882Z,1.90
2018-06-11T11:48:51.892Z,2.47
2018-06-11T11:51:20.844Z,2.10
2018-06-11T11:53:49.887Z,2.05
2018-06-11T11:56:18.916Z,2.50
2018-06-11T11:58:47.944Z,1.85
2018-06-11T12:01:17.026Z,2.02
2018-06-11T12:03:45.989Z,1.85
2018-06-11T12:06:15.006Z,2.40
2018-06-11T12:08:43.989Z,1.70
2018-06-11T12:11:13.037Z,1.90
2018-06-11T12:13:42.188Z,2.33
2018-06-11T12:16:11.269Z,2.10
2018-06-11T12:18:40.220Z,1.87
2018-06-11T12:21:09.345Z,1.37
2018-06-11T12:23:38.311Z,1.72
2018-06-11T12:26:07.330Z,1.52
2018-06-11T12:28:36.307Z,1.35
2018-06-11T12:31:05.318Z,1.57
2018-06-11T12:33:34.405Z,1.52
2018-06-11T12:36:03.484Z,1.67
2018-06-11T12:38:32.584Z,1.40
2018-06-11T12:41:01.561Z,1.30
2018-06-11T12:43:30.558Z,1.62
2018-06-11T12:45:59.521Z,1.67
2018-06-11T12:48:28.531Z,1.50
2018-06-11T12:50:57.540Z,1.50
2018-06-11T12:53:26.541Z,1.95
2018-06-11T12:55:55.490Z,1.72
2018-06-11T12:58:24.464Z,1.90
2018-06-11T13:00:53.424Z,1.60
2018-06-11T13:03:22.477Z,1.57
2018-06-11T13:05:51.483Z,1.50
2018-06-11T13:08:20.493Z,1.27
2018-06-11T13:10:49.506Z,1.82
2018-06-11T13:13:18.529Z,1.57
2018-06-11T13:15:47.567Z,1.05
2018-06-11T13:18:16.642Z,1.37
2018-06-11T13:20:45.625Z,1.55
2018-06-11T13:23:14.587Z,1.62
2018-06-11T13:25:43.536Z,1.62
2018-06-11T13:28:12.556Z,1.45
2018-06-11T13:30:41.594Z,1.40
2018-06-11T13:33:10.549Z,1.40
2018-06-11T13:35:39.628Z,1.62
2018-06-11T13:38:08.638Z,1.67
2018-06-11T13:40:37.668Z,1.95
2018-06-11T13:43:06.627Z,1.98
2018-06-11T13:45:35.702Z,1.67
2018-06-11T13:48:04.713Z,1.30
2018-06-11T13:50:33.806Z,1.80
2018-06-11T13:53:02.889Z,1.57
2018-06-11T13:55:31.937Z,1.85
2018-06-11T13:58:00.894Z,1.82
2018-06-11T14:00:29.908Z,1.98
2018-06-11T14:02:58.908Z,2.00
2018-06-11T14:05:27.921Z,2.00
2018-06-11T14:07:56.956Z,1.73
2018-06-11T14:10:25.994Z,2.63
2018-06-11T14:12:55.024Z,2.30
2018-06-11T14:15:24.016Z,2.43
2018-06-11T14:17:53.076Z,1.87
2018-06-11T14:20:22.174Z,1.73
2018-06-11T14:22:51.205Z,2.40
2018-06-11T14:25:20.230Z,2.60
2018-06-11T14:27:49.260Z,2.40
2018-06-11T14:30:18.353Z,2.60
2018-06-11T14:32:47.361Z,3.73
2018-06-11T14:35:16.424Z,2.20
2018-06-11T14:37:45.380Z,1.90
2018-06-11T14:40:14.358Z,2.43
2018-06-11T14:42:43.518Z,2.03
2018-06-11T14:45:12.637Z,2.00
2018-06-11T14:47:41.649Z,2.30
2018-06-11T14:50:10.798Z,2.00
2018-06-11T14:52:39.849Z,2.10
2018-06-11T14:55:09.020Z,1.67
2018-06-11T14:57:37.984Z,1.87
2018-06-11T15:00:07.051Z,2.17
2018-06-11T15:02:36.063Z,2.10
2018-06-11T15:05:05.133Z,2.20
2018-06-11T15:07:34.139Z,2.07
2018-06-11T15:10:03.179Z,2.07
2018-06-11T15:12:32.145Z,1.60
2018-06-11T15:15:01.187Z,1.73
2018-06-11T15:17:30.136Z,2.10
2018-06-11T15:19:59.196Z,1.70
2018-06-11T15:22:28.226Z,2.60
2018-06-11T15:24:57.232Z,2.63
2018-06-11T15:27:26.249Z,1.80
2018-06-11T15:29:55.227Z,1.90
2018-06-11T15:32:24.308Z,1.63
2018-06-11T15:34:53.322Z,1.83
2018-06-11T15:37:22.337Z,1.60
2018-06-11T15:39:51.291Z,2.30
2018-06-11T15:42:20.301Z,2.07
2018-06-11T15:44:49.382Z,2.13
2018-06-11T15:47:18.413Z,2.30
2018-06-11T15:49:47.478Z,1.57
2018-06-11T15:52:16.460Z,2.40
2018-06-11T15:54:45.400Z,2.07
2018-06-11T15:57:14.498Z,2.00
2018-06-11T15:59:43.500Z,2.47
2018-06-11T16:02:12.538Z,2.20
2018-06-11T16:04:41.608Z,1.50
2018-06-11T16:07:10.625Z,2.00
2018-06-11T16:09:39.620Z,2.20
2018-06-11T16:12:08.685Z,2.73
2018-06-11T16:14:37.681Z,2.23
2018-06-11T16:17:06.709Z,1.73
2018-06-11T16:19:35.745Z,1.97
2018-06-11T16:22:04.906Z,2.37
2018-06-11T16:24:33.887Z,2.60
2018-06-11T16:27:02.842Z,2.47
2018-06-11T16:29:31.909Z,2.57
2018-06-11T16:32:01.756Z,2.20
2018-06-11T16:34:30.833Z,2.10
2018-06-11T16:36:59.958Z,2.67
2018-06-11T16:39:28.953Z,2.57
2018-06-11T16:41:57.953Z,2.27
2018-06-11T16:44:27.209Z,1.80
2018-06-11T16:46:56.336Z,2.17
2018-06-11T16:49:25.363Z,2.07
2018-06-11T16:51:54.340Z,2.33
2018-06-11T16:54:23.350Z,2.83
2018-06-11T16:56:52.323Z,2.87
2018-06-11T16:59:21.403Z,2.20
2018-06-11T17:01:50.406Z,2.33
2018-06-11T17:04:19.436Z,2.20
2018-06-11T17:06:48.464Z,2.27
2018-06-11T17:09:17.461Z,2.00
2018-06-11T17:11:46.524Z,2.20
2018-06-11T17:14:15.534Z,2.77
2018-06-11T17:16:44.489Z,2.33
2018-06-11T17:19:13.499Z,3.23
2018-06-11T17:21:42.501Z,2.80
2018-06-11T17:24:11.723Z,2.60
2018-06-11T17:26:40.679Z,4.10
2018-06-11T17:29:09.628Z,3.70
2018-06-11T17:31:38.614Z,3.80
2018-06-11T17:34:07.757Z,3.77
2018-06-11T17:36:36.864Z,3.97
2018-06-11T17:39:07.880Z,4.43
2018-06-11T17:41:36.835Z,3.60
2018-06-11T17:44:05.795Z,3.63
2018-06-11T17:46:34.888Z,3.10
2018-06-11T17:49:03.900Z,4.20
2018-06-11T17:51:32.960Z,3.53
2018-06-11T17:54:01.900Z,4.40
2018-06-11T17:56:30.933Z,4.13
2018-06-11T17:58:59.942Z,4.00
2018-06-11T18:01:29.021Z,4.67
2018-06-11T18:03:57.974Z,3.97
2018-06-11T18:06:26.997Z,4.00
2018-06-11T18:08:55.945Z,4.40
2018-06-11T18:11:24.973Z,4.00
2018-06-11T18:13:55.377Z,4.50
2018-06-11T18:16:24.384Z,3.87
2018-06-11T18:18:53.363Z,3.87
2018-06-11T18:21:22.308Z,3.30
2018-06-11T18:23:51.253Z,3.30
2018-06-11T18:26:20.344Z,4.30
2018-06-11T18:28:49.337Z,4.00
2018-06-11T18:31:18.287Z,4.57
2018-06-11T18:33:47.306Z,4.30
2018-06-11T18:36:16.314Z,4.00
2018-06-11T18:38:45.385Z,4.10
2018-06-11T18:41:14.631Z,4.13
2018-06-11T18:43:43.605Z,3.47
2018-06-11T18:46:12.552Z,4.07
2018-06-11T18:48:41.608Z,4.73
2018-06-11T18:51:10.691Z,4.33
2018-06-11T18:53:39.765Z,3.93
2018-06-11T18:56:08.848Z,4.83
2018-06-11T18:58:37.776Z,6.27
2018-06-11T19:01:06.783Z,3.63
2018-06-11T19:03:35.865Z,4.50
2018-06-11T19:06:04.889Z,4.47
2018-06-11T19:08:33.908Z,3.70
2018-06-11T19:11:02.937Z,3.37
2018-06-11T19:13:31.888Z,3.13
2018-06-11T19:16:01.571Z,2.87
2018-06-11T19:18:30.669Z,2.97
2018-06-11T19:20:59.631Z,3.60
2018-06-11T19:23:28.590Z,4.37
2018-06-11T19:25:57.660Z,3.00
2018-06-11T19:28:26.728Z,3.37
2018-06-11T19:30:55.680Z,3.10
2018-06-11T19:33:24.797Z,2.60
2018-06-11T19:35:53.772Z,2.80
2018-06-11T19:38:22.754Z,3.67
2018-06-11T19:40:51.805Z,2.87
2018-06-11T19:43:20.874Z,2.40
2018-06-11T19:45:49.824Z,2.80
2018-06-11T19:48:18.932Z,2.33
2018-06-11T19:50:47.980Z,2.63
2018-06-11T19:53:16.985Z,2.70
2018-06-11T19:55:45.988Z,2.63
2018-06-11T19:58:14.988Z,2.83
2018-06-11T20:00:43.988Z,2.10
2018-06-11T20:03:13.048Z,2.70
2018-06-11T20:05:42.004Z,3.33
2018-06-11T20:08:10.947Z,2.70
2018-06-11T20:10:40.009Z,3.07
2018-06-11T20:13:09.077Z,2.70
2018-06-11T20:15:38.093Z,2.90
2018-06-11T20:18:07.209Z,2.47
2018-06-11T20:20:36.217Z,2.53
2018-06-11T20:23:05.225Z,3.50
2018-06-11T20:25:34.290Z,3.13
2018-06-11T20:28:03.576Z,2.30
2018-06-11T20:30:32.585Z,2.73
2018-06-11T20:33:01.648Z,2.93
2018-06-11T20:35:30.640Z,3.03
2018-06-11T20:37:59.890Z,2.40
2018-06-11T20:40:28.945Z,2.80
2018-06-11T20:42:57.960Z,2.70
2018-06-11T20:45:26.960Z,2.70
2018-06-11T20:47:56.008Z,2.33
2018-06-11T20:50:24.955Z,2.97
2018-06-11T20:52:53.964Z,2.50
2018-06-11T20:55:22.969Z,3.10
2018-06-11T20:57:52.023Z,2.53
2018-06-11T21:00:21.016Z,2.60
2018-06-11T21:02:50.064Z,2.60
2018-06-11T21:05:19.010Z,3.07
2018-06-11T21:07:48.000Z,2.93
2018-06-11T21:10:17.131Z,3.43
2018-06-11T21:12:46.233Z,3.30
2018-06-11T21:15:15.176Z,3.33
2018-06-11T21:17:44.233Z,2.80
2018-06-11T21:20:13.176Z,3.10
2018-06-11T21:22:42.124Z,3.13
2018-06-11T21:25:11.194Z,2.73
2018-06-11T21:27:40.203Z,2.30
2018-06-11T21:30:09.284Z,2.53
2018-06-11T21:32:38.299Z,2.93
2018-06-11T21:35:07.352Z,2.43
2018-06-11T21:37:36.359Z,2.60
2018-06-11T21:40:05.449Z,2.90
2018-06-11T21:42:34.453Z,2.50
2018-06-11T21:45:03.437Z,2.70
2018-06-11T21:47:32.508Z,3.00
2018-06-11T21:50:01.506Z,3.20
2018-06-11T21:52:30.483Z,3.10
2018-06-11T21:54:59.528Z,2.70
2018-06-11T21:57:28.568Z,2.70
2018-06-11T21:59:57.511Z,3.17
2018-06-11T22:02:26.565Z,2.50
2018-06-11T22:04:55.640Z,2.33
2018-06-11T22:07:24.595Z,2.67
2018-06-11T22:09:53.579Z,2.20
2018-06-11T22:12:22.566Z,2.90
2018-06-11T22:14:51.572Z,2.50
2018-06-11T22:17:20.632Z,3.00
2018-06-11T22:19:49.609Z,2.70
2018-06-11T22:22:18.616Z,2.50
2018-06-11T22:24:47.655Z,2.40
2018-06-11T22:27:16.600Z,1.93
2018-06-11T22:29:45.535Z,3.03
2018-06-11T22:32:14.609Z,2.57
2018-06-11T22:34:43.552Z,2.30
2018-06-11T22:37:12.540Z,2.73
2018-06-11T22:39:41.590Z,2.10
2018-06-11T22:42:10.588Z,2.77
2018-06-11T22:44:39.535Z,2.80
2018-06-11T22:47:08.627Z,3.27
2018-06-11T22:49:37.688Z,3.67
2018-06-11T22:52:06.744Z,2.83
2018-06-11T22:54:35.801Z,2.10
2018-06-11T22:57:04.745Z,2.33
2018-06-11T22:59:33.793Z,2.10
2018-06-11T23:02:02.856Z,2.90
2018-06-11T23:04:31.913Z,2.30
2018-06-11T23:07:00.961Z,2.40
2018-06-11T23:09:30.010Z,3.00
2018-06-11T23:11:59.001Z,2.43
2018-06-11T23:14:28.005Z,2.30
2018-06-11T23:16:57.057Z,2.70
2018-06-11T23:19:26.061Z,2.30
2018-06-11T23:21:54.993Z,2.70
2018-06-11T23:24:24.089Z,2.27
2018-06-11T23:26:53.092Z,2.00
2018-06-11T23:29:22.040Z,2.40
2018-06-11T23:31:51.104Z,2.27
2018-06-11T23:34:20.201Z,2.07
2018-06-11T23:36:49.168Z,2.23
2018-06-11T23:39:18.241Z,2.43
2018-06-11T23:41:47.246Z,12.27
2018-06-11T23:44:16.187Z,1.90
2018-06-11T23:46:45.200Z,11.50
2018-06-11T23:49:14.193Z,2.20
2018-06-11T23:51:43.130Z,2.27
2018-06-11T23:54:12.174Z,2.10
2018-06-11T23:56:41.107Z,2.23
2018-06-11T23:59:10.111Z,1.77
